Time;durP1;ratioP1;P1;durP2;ratioP2;P2;SDS_P1;SDS_P2;PMS_P1;PMS_P2;Temp;Humidity;BMP_temperature;BMP_pressure;BME280_temperature;BME280_humidity;BME280_pressure;Samples;Min_cycle;Max_cycle;Signal;HPM_P1;HPM_P2
2024/03/07 00:00:16;;;;;;;4.80;3.60;;;;;;;;;;6336499;28;20297;-60
2024/03/07 00:03:24;;;;;;;4.20;3.90;;;;;;;;;;6335994;28;20301;-60
2024/03/07 00:06:28;;;;;;;7.60;4.57;;;;;;;;;;6336648;28;20287;-60
2024/03/07 00:09:33;;;;;;;5.50;4.40;;;;;;;;;;6335431;28;20313;-61
2024/03/07 00:12:38;;;;;;;7.23;4.90;;;;;;;;;;6336055;28;20464;-60
2024/03/07 00:15:42;;;;;;;7.27;4.50;;;;;;;;;;6335116;28;20277;-60
2024/03/07 00:18:48;;;;;;;8.03;4.57;;;;;;;;;;6335858;28;20320;-60
2024/03/07 00:21:52;;;;;;;8.20;4.83;;;;;;;;;;6335994;28;20309;-59
2024/03/07 00:24:56;;;;;;;5.60;4.93;;;;;;;;;;6335467;28;20298;-58
2024/03/07 00:28:02;;;;;;;6.23;4.90;;;;;;;;;;6336009;28;20390;-59
2024/03/07 00:31:08;;;;;;;6.50;4.37;;;;;;;;;;6335935;28;20408;-59
2024/03/07 00:34:16;;;;;;;4.93;4.50;;;;;;;;;;6336025;28;20287;-59
2024/03/07 00:37:28;;;;;;;8.37;5.13;;;;;;;;;;6335167;28;20372;-59
2024/03/07 00:40:32;;;;;;;8.60;4.90;;;;;;;;;;6335690;28;20300;-59
2024/03/07 00:43:36;;;;;;;10.80;4.87;;;;;;;;;;6335272;28;20320;-60
2024/03/07 00:46:40;;;;;;;6.07;5.47;;;;;;;;;;6335529;28;20292;-60
2024/03/07 00:49:46;;;;;;;10.30;5.40;;;;;;;;;;6335276;28;20297;-59
2024/03/07 00:52:50;;;;;;;8.47;5.23;;;;;;;;;;6335624;28;20292;-59
2024/03/07 00:55:53;;;;;;;9.37;5.63;;;;;;;;;;6335853;28;20292;-60
2024/03/07 00:58:57;;;;;;;7.20;5.00;;;;;;;;;;6335008;28;20304;-59
2024/03/07 01:02:01;;;;;;;11.77;5.20;;;;;;;;;;6335601;28;20296;-60
2024/03/07 01:05:09;;;;;;;6.00;4.97;;;;;;;;;;6334124;28;20480;-60
2024/03/07 01:08:13;;;;;;;10.20;5.13;;;;;;;;;;6334507;28;20300;-60
2024/03/07 01:11:17;;;;;;;9.27;4.83;;;;;;;;;;6334996;28;20293;-60
2024/03/07 01:14:22;;;;;;;9.37;5.47;;;;;;;;;;6334884;28;20304;-60
2024/03/07 01:17:26;;;;;;;14.60;5.70;;;;;;;;;;6334849;28;20585;-59
2024/03/07 01:20:32;;;;;;;8.20;5.73;;;;;;;;;;6335322;28;20293;-61
2024/03/07 01:23:36;;;;;;;11.00;5.60;;;;;;;;;;6334698;28;20300;-60
2024/03/07 01:26:40;;;;;;;11.03;5.40;;;;;;;;;;6335397;28;20296;-60
2024/03/07 01:29:44;;;;;;;10.33;5.50;;;;;;;;;;6334605;28;20470;-60
2024/03/07 01:32:48;;;;;;;8.27;5.60;;;;;;;;;;6334861;28;20292;-60
2024/03/07 01:35:53;;;;;;;5.47;4.93;;;;;;;;;;6335097;28;20300;-59
2024/03/07 01:38:57;;;;;;;9.73;5.00;;;;;;;;;;6334234;28;20327;-60
2024/03/07 01:42:01;;;;;;;5.10;4.60;;;;;;;;;;6335032;28;20297;-61
2024/03/07 01:45:08;;;;;;;9.57;5.00;;;;;;;;;;6334636;28;20296;-60
2024/03/07 01:48:14;;;;;;;8.93;5.20;;;;;;;;;;6334724;28;20299;-61
2024/03/07 01:51:19;;;;;;;6.63;5.13;;;;;;;;;;6318931;28;20487;-60
2024/03/07 01:54:24;;;;;;;14.13;5.50;;;;;;;;;;6339583;28;20435;-60
2024/03/07 01:57:28;;;;;;;13.03;5.07;;;;;;;;;;6339354;28;20300;-60
2024/03/07 02:00:32;;;;;;;8.87;5.10;;;;;;;;;;6340169;28;20580;-58
2024/03/07 02:03:36;;;;;;;5.97;4.97;;;;;;;;;;6339230;28;20585;-59
2024/03/07 02:06:42;;;;;;;11.33;5.03;;;;;;;;;;6339719;28;20313;-59
2024/03/07 02:09:46;;;;;;;9.67;5.10;;;;;;;;;;6338655;28;20299;-60
2024/03/07 02:12:49;;;;;;;6.90;5.20;;;;;;;;;;6339461;28;20299;-60
2024/03/07 02:15:54;;;;;;;6.10;4.90;;;;;;;;;;6339434;28;20241;-60
2024/03/07 02:18:59;;;;;;;11.17;4.93;;;;;;;;;;6338744;28;20617;-58
2024/03/07 02:22:04;;;;;;;13.20;5.07;;;;;;;;;;6338810;28;20292;-60
2024/03/07 02:25:09;;;;;;;10.30;5.00;;;;;;;;;;6338584;28;20292;-59
2024/03/07 02:28:14;;;;;;;9.50;4.83;;;;;;;;;;6338612;28;20292;-59
2024/03/07 02:31:18;;;;;;;11.37;5.17;;;;;;;;;;6339062;28;20426;-59
2024/03/07 02:34:22;;;;;;;9.33;4.87;;;;;;;;;;6338120;28;20281;-60
2024/03/07 02:37:28;;;;;;;7.87;5.57;;;;;;;;;;6338063;28;20304;-59
2024/03/07 02:40:32;;;;;;;7.17;4.77;;;;;;;;;;6339130;28;20553;-59
2024/03/07 02:43:37;;;;;;;8.47;5.10;;;;;;;;;;6338368;28;20283;-59
2024/03/07 02:46:41;;;;;;;9.50;5.17;;;;;;;;;;6338775;28;20286;-59
2024/03/07 02:49:45;;;;;;;10.63;4.70;;;;;;;;;;6338249;28;20293;-59
2024/03/07 02:52:52;;;;;;;13.20;4.60;;;;;;;;;;6338306;28;20284;-58
2024/03/07 02:55:56;;;;;;;13.60;4.77;;;;;;;;;;6338521;28;20353;-59
2024/03/07 02:59:01;;;;;;;7.77;4.67;;;;;;;;;;6337905;28;20300;-59
2024/03/07 03:02:07;;;;;;;11.27;4.73;;;;;;;;;;6338464;28;20297;-60
2024/03/07 03:05:11;;;;;;;12.27;5.20;;;;;;;;;;6337851;28;20297;-59
2024/03/07 03:08:17;;;;;;;9.40;4.87;;;;;;;;;;6337572;28;20298;-59
2024/03/07 03:11:21;;;;;;;6.27;4.50;;;;;;;;;;6319946;28;20293;-59
2024/03/07 03:14:25;;;;;;;12.10;4.83;;;;;;;;;;6337466;28;20279;-58
2024/03/07 03:17:29;;;;;;;14.20;4.90;;;;;;;;;;6337016;28;20295;-60
2024/03/07 03:20:34;;;;;;;10.97;5.20;;;;;;;;;;6337874;28;20291;-60
2024/03/07 03:23:40;;;;;;;7.47;4.57;;;;;;;;;;6337508;28;20296;-60
2024/03/07 03:26:44;;;;;;;;;;;;;;;;;;6338324;28;20384;-59
2024/03/07 03:29:50;;;;;;;9.37;4.70;;;;;;;;;;6337044;28;20287;-59
2024/03/07 03:32:55;;;;;;;9.17;4.73;;;;;;;;;;6337134;28;20288;-59
2024/03/07 03:35:59;;;;;;;6.70;4.23;;;;;;;;;;6319194;28;20303;-60
2024/03/07 03:39:06;;;;;;;10.23;4.73;;;;;;;;;;6337130;28;20316;-60
2024/03/07 03:42:11;;;;;;;13.40;4.40;;;;;;;;;;6318856;28;20301;-59
2024/03/07 03:45:15;;;;;;;13.37;4.80;;;;;;;;;;6336525;28;20296;-59
2024/03/07 03:48:19;;;;;;;9.47;4.30;;;;;;;;;;6336705;28;20521;-59
2024/03/07 03:51:25;;;;;;;5.13;4.70;;;;;;;;;;6337245;28;20296;-59
2024/03/07 03:54:30;;;;;;;8.80;5.10;;;;;;;;;;6336593;28;20392;-59
2024/03/07 03:57:34;;;;;;;11.67;4.70;;;;;;;;;;6336465;28;20281;-61
2024/03/07 04:00:39;;;;;;;8.77;4.63;;;;;;;;;;6337531;28;20289;-60
2024/03/07 04:03:46;;;;;;;4.97;4.47;;;;;;;;;;6333705;28;20293;-60
2024/03/07 04:06:50;;;;;;;7.03;4.70;;;;;;;;;;6336513;28;20264;-60
2024/03/07 04:09:55;;;;;;;11.13;5.07;;;;;;;;;;6335727;28;20566;-60
2024/03/07 04:12:59;;;;;;;9.30;4.57;;;;;;;;;;6335664;28;20568;-60
2024/03/07 04:16:04;;;;;;;;;;;;;;;;;;6336599;28;20107;-60
2024/03/07 04:19:09;;;;;;;;;;;;;;;;;;6317662;28;20143;-60
2024/03/07 04:22:12;;;;;;;;;;;;;;;;;;6336873;28;19988;-60
2024/03/07 04:25:19;;;;;;;;;;;;;;;;;;6336828;28;19991;-60
2024/03/07 04:28:23;;;;;;;12.00;4.77;;;;;;;;;;6336280;28;20266;-60
2024/03/07 04:31:27;;;;;;;8.53;4.53;;;;;;;;;;6336489;28;20377;-60
2024/03/07 04:34:31;;;;;;;7.70;4.40;;;;;;;;;;6335785;28;20279;-59
2024/03/07 04:37:37;;;;;;;8.90;4.55;;;;;;;;;;6335237;28;20291;-59
2024/03/07 04:40:42;;;;;;;4.67;4.23;;;;;;;;;;6335771;28;20342;-59
2024/03/07 04:43:46;;;;;;;8.40;4.23;;;;;;;;;;6335529;28;20286;-58
2024/03/07 04:46:55;;;;;;;;;;;;;;;;;;6335899;28;20314;-61
2024/03/07 04:49:58;;;;;;;;;;;;;;;;;;6335472;28;20298;-59
2024/03/07 04:53:02;;;;;;;8.93;5.10;;;;;;;;;;6335382;28;20315;-59
2024/03/07 04:56:09;;;;;;;10.30;4.63;;;;;;;;;;6335595;28;20470;-60
2024/03/07 04:59:14;;;;;;;6.67;3.93;;;;;;;;;;6334878;28;20301;-60
2024/03/07 05:02:18;;;;;;;4.63;4.20;;;;;;;;;;6335303;28;20421;-60
2024/03/07 05:05:25;;;;;;;9.50;4.33;;;;;;;;;;6310867;28;20371;-59
2024/03/07 05:08:29;;;;;;;4.55;4.10;;;;;;;;;;6309326;28;20318;-59
2024/03/07 05:11:34;;;;;;;;;;;;;;;;;;6328614;28;20314;-59
2024/03/07 05:14:38;;;;;;;5.57;3.53;;;;;;;;;;6334996;28;20475;-59
2024/03/07 05:17:42;;;;;;;9.93;3.87;;;;;;;;;;6335011;28;20299;-60
2024/03/07 05:20:48;;;;;;;5.63;3.70;;;;;;;;;;6335265;28;20303;-60
2024/03/07 05:23:53;;;;;;;4.63;4.27;;;;;;;;;;6334762;28;20296;-60
2024/03/07 05:26:58;;;;;;;9.00;3.80;;;;;;;;;;6334070;28;20300;-59
2024/03/07 05:30:03;;;;;;;10.17;3.77;;;;;;;;;;6334160;28;20378;-59
2024/03/07 05:33:10;;;;;;;4.00;3.70;;;;;;;;;;6334233;28;20538;-60
2024/03/07 05:36:15;;;;;;;11.30;4.23;;;;;;;;;;6334950;28;20292;-60
2024/03/07 05:39:19;;;;;;;8.20;3.80;;;;;;;;;;6334179;28;20295;-59
2024/03/07 05:42:25;;;;;;;4.43;3.70;;;;;;;;;;6334534;28;20498;-59
2024/03/07 05:45:28;;;;;;;5.13;4.40;;;;;;;;;;6333355;28;20297;-59
2024/03/07 05:48:32;;;;;;;12.13;4.00;;;;;;;;;;6334075;28;20296;-59
2024/03/07 05:51:37;;;;;;;5.20;3.63;;;;;;;;;;6334430;28;20297;-59
2024/03/07 05:54:41;;;;;;;10.07;4.03;;;;;;;;;;6333975;28;20301;-60
2024/03/07 05:57:46;;;;;;;5.37;4.00;;;;;;;;;;6332619;28;20307;-59
2024/03/07 06:00:50;;;;;;;7.23;4.10;;;;;;;;;;6334257;28;20265;-60
2024/03/07 06:03:56;;;;;;;5.43;3.70;;;;;;;;;;6333648;28;20288;-60
2024/03/07 06:07:00;;;;;;;5.50;3.60;;;;;;;;;;6334071;28;20245;-60
2024/03/07 06:10:06;;;;;;;3.47;3.27;;;;;;;;;;6333423;28;20289;-60
2024/03/07 06:13:11;;;;;;;9.73;3.83;;;;;;;;;;6333686;28;20335;-60
2024/03/07 06:16:15;;;;;;;6.03;3.50;;;;;;;;;;6334294;28;20293;-60
2024/03/07 06:19:19;;;;;;;13.63;3.77;;;;;;;;;;6334019;28;20293;-60
2024/03/07 06:22:23;;;;;;;5.73;3.53;;;;;;;;;;6334167;28;20288;-60
2024/03/07 06:25:36;;;;;;;10.23;3.53;;;;;;;;;;6333583;28;20474;-60
2024/03/07 06:28:42;;;;;;;3.67;2.97;;;;;;;;;;6334209;28;20356;-60
2024/03/07 06:31:47;;;;;;;9.80;3.37;;;;;;;;;;6334713;28;20296;-60
2024/03/07 06:34:50;;;;;;;3.57;3.13;;;;;;;;;;6334115;28;20304;-60
2024/03/07 06:37:55;;;;;;;4.23;3.10;;;;;;;;;;6337062;28;20296;-59
2024/03/07 06:40:58;;;;;;;5.40;3.23;;;;;;;;;;6339252;28;20293;-61
2024/03/07 06:44:05;;;;;;;5.90;3.23;;;;;;;;;;6338233;28;20301;-59
2024/03/07 06:47:08;;;;;;;3.60;3.30;;;;;;;;;;6338845;28;20296;-61
2024/03/07 06:50:14;;;;;;;3.43;3.00;;;;;;;;;;6338139;28;20289;-61
2024/03/07 06:53:29;;;;;;;3.40;3.10;;;;;;;;;;6338332;28;20484;-62
2024/03/07 06:56:33;;;;;;;6.43;3.33;;;;;;;;;;6338837;28;20464;-58
2024/03/07 06:59:39;;;;;;;3.67;3.00;;;;;;;;;;6338315;28;20289;-62
2024/03/07 07:02:44;;;;;;;3.67;2.80;;;;;;;;;;6338030;28;20528;-58
2024/03/07 07:05:48;;;;;;;3.43;3.20;;;;;;;;;;6338295;28;20302;-61
2024/03/07 07:08:52;;;;;;;3.53;2.67;;;;;;;;;;6337212;28;20313;-60
2024/03/07 07:11:56;;;;;;;9.63;3.07;;;;;;;;;;6338018;28;20292;-60
2024/03/07 07:15:01;;;;;;;3.10;2.90;;;;;;;;;;6337534;28;20297;-60
2024/03/07 07:18:07;;;;;;;2.73;2.63;;;;;;;;;;6337687;28;20295;-60
2024/03/07 07:21:14;;;;;;;3.47;3.00;;;;;;;;;;6337855;28;20293;-61
2024/03/07 07:24:19;;;;;;;3.43;3.17;;;;;;;;;;6337474;28;20296;-60
2024/03/07 07:27:23;;;;;;;6.93;3.33;;;;;;;;;;6337706;28;20281;-60
2024/03/07 07:30:28;;;;;;;3.37;3.10;;;;;;;;;;6336889;28;20290;-60
2024/03/07 07:33:32;;;;;;;3.10;2.90;;;;;;;;;;6336998;28;20297;-60
2024/03/07 07:36:36;;;;;;;4.27;2.90;;;;;;;;;;6337165;28;20584;-59
2024/03/07 07:39:40;;;;;;;3.10;2.90;;;;;;;;;;6319186;28;20293;-60
2024/03/07 07:42:46;;;;;;;3.17;2.87;;;;;;;;;;6336396;28;20706;-60
2024/03/07 07:45:51;;;;;;;3.33;3.13;;;;;;;;;;6336918;28;20503;-59
2024/03/07 07:48:55;;;;;;;2.83;2.73;;;;;;;;;;6335637;28;20289;-60
2024/03/07 07:52:00;;;;;;;10.30;2.80;;;;;;;;;;6336998;28;20240;-60
2024/03/07 07:55:04;;;;;;;4.73;2.80;;;;;;;;;;6336491;28;20584;-60
2024/03/07 07:58:08;;;;;;;3.43;2.90;;;;;;;;;;6336516;28;20281;-59
2024/03/07 08:01:15;;;;;;;5.07;3.03;;;;;;;;;;6336701;28;20293;-59
2024/03/07 08:04:19;;;;;;;3.53;3.07;;;;;;;;;;6335882;28;20295;-60
2024/03/07 08:07:23;;;;;;;4.93;2.87;;;;;;;;;;6336319;28;20296;-60
2024/03/07 08:10:28;;;;;;;5.70;2.80;;;;;;;;;;6335973;28;20291;-60
2024/03/07 08:13:33;;;;;;;3.50;3.30;;;;;;;;;;6336711;28;20282;-59
2024/03/07 08:16:38;;;;;;;2.70;2.60;;;;;;;;;;6336940;28;20309;-59
2024/03/07 08:19:43;;;;;;;3.80;3.50;;;;;;;;;;6336184;28;20298;-60
2024/03/07 08:22:51;;;;;;;2.93;2.80;;;;;;;;;;6336819;28;20474;-59
2024/03/07 08:25:55;;;;;;;2.63;2.43;;;;;;;;;;6318180;28;20293;-58
2024/03/07 08:29:00;;;;;;;3.00;2.77;;;;;;;;;;6318216;28;20617;-60
2024/03/07 08:32:08;;;;;;;2.73;2.60;;;;;;;;;;6318187;28;20302;-61
2024/03/07 08:35:13;;;;;;;2.83;2.70;;;;;;;;;;6336317;28;20580;-60
2024/03/07 08:38:17;;;;;;;6.37;2.70;;;;;;;;;;6318013;28;20478;-60
2024/03/07 08:41:36;;;;;;;5.80;2.90;;;;;;;;;;6302071;28;20312;-60
2024/03/07 08:44:41;;;;;;;6.00;2.90;;;;;;;;;;6335579;28;20367;-60
2024/03/07 08:47:48;;;;;;;4.83;2.80;;;;;;;;;;6317086;28;20286;-60
2024/03/07 08:50:53;;;;;;;7.23;2.83;;;;;;;;;;6318386;28;20589;-60
2024/03/07 08:53:59;;;;;;;2.93;2.70;;;;;;;;;;6318110;28;20589;-60
2024/03/07 08:57:04;;;;;;;6.37;2.90;;;;;;;;;;6336726;28;20472;-60
2024/03/07 09:00:12;;;;;;;9.23;2.70;;;;;;;;;;6336100;28;20301;-60
2024/03/07 09:03:18;;;;;;;2.80;2.50;;;;;;;;;;6315956;28;20292;-60
2024/03/07 09:06:23;;;;;;;6.20;3.07;;;;;;;;;;6318550;28;20588;-58
2024/03/07 09:09:27;;;;;;;3.23;2.50;;;;;;;;;;6308309;28;20309;-59
2024/03/07 09:12:31;;;;;;;3.27;2.53;;;;;;;;;;6310685;28;20310;-59
2024/03/07 09:15:37;;;;;;;5.63;2.27;;;;;;;;;;6310101;28;20289;-59
2024/03/07 09:18:43;;;;;;;2.93;2.47;;;;;;;;;;6325390;28;20298;-62
2024/03/07 09:21:49;;;;;;;3.60;2.90;;;;;;;;;;6307928;28;20495;-60
2024/03/07 09:24:53;;;;;;;8.30;2.90;;;;;;;;;;6309209;28;20301;-60
2024/03/07 09:27:57;;;;;;;3.00;2.60;;;;;;;;;;6310001;28;20300;-60
2024/03/07 09:31:02;;;;;;;4.27;2.43;;;;;;;;;;6308971;28;20291;-59
2024/03/07 09:34:08;;;;;;;10.90;2.90;;;;;;;;;;6309911;28;20497;-59
2024/03/07 09:37:13;;;;;;;5.63;2.90;;;;;;;;;;6310552;28;20288;-60
2024/03/07 09:40:17;;;;;;;5.80;2.50;;;;;;;;;;6310515;28;20377;-59
2024/03/07 09:43:22;;;;;;;5.47;2.37;;;;;;;;;;6309806;28;20294;-61
2024/03/07 09:46:26;;;;;;;4.50;2.10;;;;;;;;;;6310789;28;20298;-61
2024/03/07 09:49:35;;;;;;;6.23;2.63;;;;;;;;;;6307724;28;20286;-59
2024/03/07 09:52:41;;;;;;;4.93;2.70;;;;;;;;;;6308406;28;20297;-60
2024/03/07 09:55:46;;;;;;;7.07;2.90;;;;;;;;;;6292687;28;20492;-61
2024/03/07 09:58:51;;;;;;;5.10;2.57;;;;;;;;;;6309556;28;20292;-60
2024/03/07 10:01:57;;;;;;;3.83;2.30;;;;;;;;;;6308892;28;20297;-60
2024/03/07 10:05:03;;;;;;;3.67;2.47;;;;;;;;;;6309696;28;20486;-60
2024/03/07 10:08:07;;;;;;;4.13;2.70;;;;;;;;;;6313240;28;20305;-60
2024/03/07 10:11:14;;;;;;;3.90;2.10;;;;;;;;;;6335056;28;20286;-60
2024/03/07 10:14:18;;;;;;;9.40;2.60;;;;;;;;;;6321499;28;20294;-60
2024/03/07 10:17:26;;;;;;;6.13;2.70;;;;;;;;;;6340334;28;20505;-60
2024/03/07 10:20:31;;;;;;;2.57;2.10;;;;;;;;;;6339447;28;20309;-59
2024/03/07 10:23:35;;;;;;;10.93;2.47;;;;;;;;;;6320825;28;20300;-60
2024/03/07 10:26:40;;;;;;;2.93;2.40;;;;;;;;;;6339863;28;20477;-60
2024/03/07 10:29:44;;;;;;;7.17;2.50;;;;;;;;;;6339315;28;20302;-60
2024/03/07 10:32:48;;;;;;;11.33;2.50;;;;;;;;;;6339229;28;20585;-61
2024/03/07 10:35:54;;;;;;;2.60;2.33;;;;;;;;;;6339972;28;20603;-61
2024/03/07 10:39:12;;;;;;;6.53;2.53;;;;;;;;;;6339345;28;20610;-60
2024/03/07 10:42:16;;;;;;;5.50;2.47;;;;;;;;;;6339121;28;20298;-61
2024/03/07 10:45:21;;;;;;;1.87;1.87;;;;;;;;;;6338848;28;20298;-60
2024/03/07 10:48:30;;;;;;;2.47;2.30;;;;;;;;;;6338829;28;20307;-60
2024/03/07 10:51:45;;;;;;;4.43;2.37;;;;;;;;;;6339564;28;20307;-60
2024/03/07 10:54:57;;;;;;;5.93;2.43;;;;;;;;;;6337408;28;20302;-61
2024/03/07 10:58:27;;;;;;;3.70;2.60;;;;;;;;;;6338397;28;20298;-62
2024/03/07 11:01:33;;;;;;;6.30;2.37;;;;;;;;;;6339038;28;20400;-60
2024/03/07 11:04:38;;;;;;;7.73;2.60;;;;;;;;;;6337913;28;20479;-59
2024/03/07 11:07:44;;;;;;;3.13;2.50;;;;;;;;;;6337355;28;20295;-61
2024/03/07 11:10:48;;;;;;;3.13;2.33;;;;;;;;;;6338380;28;20285;-60
2024/03/07 11:13:53;;;;;;;5.27;2.93;;;;;;;;;;6319678;28;20423;-60
2024/03/07 11:16:57;;;;;;;4.40;2.50;;;;;;;;;;6337804;28;20292;-60
2024/03/07 11:20:20;;;;;;;3.80;2.40;;;;;;;;;;6337965;28;20305;-60
2024/03/07 11:23:30;;;;;;;5.57;2.80;;;;;;;;;;6335729;28;20324;-59
2024/03/07 11:26:34;;;;;;;4.37;2.80;;;;;;;;;;6338236;28;20292;-59
2024/03/07 11:29:46;;;;;;;5.97;2.90;;;;;;;;;;6337429;28;20290;-59
2024/03/07 11:32:53;;;;;;;10.03;2.50;;;;;;;;;;6337594;28;20321;-60
2024/03/07 11:35:58;;;;;;;14.63;2.97;;;;;;;;;;6337608;28;20288;-58
2024/03/07 11:39:24;;;;;;;9.10;2.60;;;;;;;;;;6337249;28;20299;-60
2024/03/07 11:42:31;;;;;;;3.17;2.00;;;;;;;;;;6311310;28;20296;-60
2024/03/07 11:45:38;;;;;;;4.30;2.30;;;;;;;;;;6311893;28;20301;-59
2024/03/07 11:48:42;;;;;;;8.40;2.47;;;;;;;;;;6310647;28;20293;-60
2024/03/07 11:51:47;;;;;;;14.77;3.40;;;;;;;;;;6310072;28;20713;-59
2024/03/07 11:55:03;;;;;;;7.37;2.63;;;;;;;;;;6311215;28;20174;-59
2024/03/07 11:58:09;;;;;;;6.40;2.30;;;;;;;;;;6311333;28;20604;-59
2024/03/07 12:01:13;;;;;;;5.77;2.57;;;;;;;;;;6311290;28;20333;-59
2024/03/07 12:04:18;;;;;;;5.07;2.43;;;;;;;;;;6311097;28;20300;-59
2024/03/07 12:07:22;;;;;;;5.67;2.60;;;;;;;;;;6311302;28;20303;-60
2024/03/07 12:10:28;;;;;;;5.63;2.30;;;;;;;;;;6310325;28;20302;-59
2024/03/07 12:13:32;;;;;;;;;;;;;;;;;;6309813;28;20459;-59
2024/03/07 12:16:36;;;;;;;;;;;;;;;;;;6312071;28;19975;-58
2024/03/07 12:19:40;;;;;;;4.60;2.17;;;;;;;;;;6310943;28;20445;-58
2024/03/07 12:22:45;;;;;;;5.03;2.30;;;;;;;;;;6310599;28;20290;-59
2024/03/07 12:26:00;;;;;;;2.20;1.80;;;;;;;;;;6293331;28;20289;-59
2024/03/07 12:29:11;;;;;;;2.33;2.23;;;;;;;;;;6310274;28;20299;-59
2024/03/07 12:32:15;;;;;;;17.03;3.00;;;;;;;;;;6310909;28;20472;-59
2024/03/07 12:35:19;;;;;;;6.23;2.40;;;;;;;;;;6309919;28;20294;-59
2024/03/07 12:38:23;;;;;;;;;;;;;;;;;;6309429;28;20468;-60
2024/03/07 12:41:28;;;;;;;;;;;;;;;;;;6311195;28;19975;-59
2024/03/07 12:44:44;;;;;;;;;;;;;;;;;;6310421;28;19987;-59
2024/03/07 12:47:50;;;;;;;;;;;;;;;;;;6310147;28;19987;-59
2024/03/07 12:50:54;;;;;;;;;;;;;;;;;;6310943;28;19979;-59
2024/03/07 12:53:58;;;;;;;;;;;;;;;;;;6310617;28;19983;-59
2024/03/07 12:57:05;;;;;;;;;;;;;;;;;;6311274;28;20109;-58
2024/03/07 13:00:18;;;;;;;;;;;;;;;;;;6310212;28;19975;-58
2024/03/07 13:03:22;;;;;;;;;;;;;;;;;;6292253;28;19980;-58
2024/03/07 13:06:29;;;;;;;19.10;2.77;;;;;;;;;;6310528;28;19987;-59
2024/03/07 13:09:34;;;;;;;9.48;2.60;;;;;;;;;;6285089;28;20318;-59
2024/03/07 13:12:42;;;;;;;6.03;2.25;;;;;;;;;;6266230;28;20296;-59
2024/03/07 13:15:47;;;;;;;6.30;2.10;;;;;;;;;;6284203;28;20212;-58
2024/03/07 13:18:53;;;;;;;5.90;2.10;;;;;;;;;;6284825;28;20294;-59
2024/03/07 13:21:58;;;;;;;31.87;3.20;;;;;;;;;;6284519;28;20232;-58
2024/03/07 13:25:13;;;;;;;23.92;3.00;;;;;;;;;;6284206;28;20326;-58
2024/03/07 13:28:24;;;;;;;5.03;1.93;;;;;;;;;;6283988;28;20283;-60
2024/03/07 13:31:29;;;;;;;9.30;1.70;;;;;;;;;;6284501;28;20343;-60
2024/03/07 13:34:34;;;;;;;6.03;1.83;;;;;;;;;;6283827;28;20295;-60
2024/03/07 13:37:41;;;;;;;4.07;1.67;;;;;;;;;;6283916;28;20575;-60
2024/03/07 13:40:45;;;;;;;4.33;1.60;;;;;;;;;;6284589;28;20291;-60
2024/03/07 13:43:50;;;;;;;;;;;;;;;;;;6283449;28;20683;-61
2024/03/07 13:46:54;;;;;;;;;;;;;;;;;;6284304;28;19980;-61
2024/03/07 13:49:59;;;;;;;;;;;;;;;;;;6284481;28;19996;-60
2024/03/07 13:53:10;;;;;;;;;;;;;;;;;;6284876;28;19975;-60
2024/03/07 13:56:44;;;;;;;;;;;;;;;;;;6284870;28;19977;-60
2024/03/07 14:00:27;;;;;;;8.25;1.67;;;;;;;;;;6183884;28;20096;-59
2024/03/07 14:04:03;;;;;;;10.32;1.90;;;;;;;;;;6279413;28;20579;-61
2024/03/07 14:07:22;;;;;;;13.27;2.28;;;;;;;;;;6284138;28;20295;-61
2024/03/07 14:10:52;;;;;;;;;;;;;;;;;;6306692;28;20099;-61
2024/03/07 14:14:06;;;;;;;;;;;;;;;;;;6291671;28;19979;-61
2024/03/07 14:17:18;;;;;;;;;;;;;;;;;;6292379;28;19975;-58
2024/03/07 14:20:47;;;;;;;;;;;;;;;;;;6309315;28;19979;-59
2024/03/07 14:24:08;;;;;;;;;;;;;;;;;;6309445;28;19987;-60
2024/03/07 14:27:19;;;;;;;;;;;;;;;;;;6310091;28;19983;-59
2024/03/07 14:30:25;;;;;;;;;;;;;;;;;;6309599;28;19979;-59
2024/03/07 14:33:30;;;;;;;;;;;;;;;;;;6309551;28;19991;-59
2024/03/07 14:36:36;;;;;;;;;;;;;;;;;;6309343;28;19998;-59
2024/03/07 14:39:40;;;;;;;;;;;;;;;;;;6309091;28;20003;-60
2024/03/07 14:42:44;;;;;;;;;;;;;;;;;;6308187;28;19994;-59
2024/03/07 14:45:47;;;;;;;;;;;;;;;;;;6291492;28;19999;-60
2024/03/07 14:48:51;;;;;;;;;;;;;;;;;;6290167;28;19975;-60
2024/03/07 14:51:56;;;;;;;;;;;;;;;;;;6309419;28;19983;-59
2024/03/07 14:55:06;;;;;;;;;;;;;;;;;;6308900;28;19983;-59
2024/03/07 14:58:09;;;;;;;;;;;;;;;;;;6302189;28;19987;-59
2024/03/07 15:01:13;;;;;;;;;;;;;;;;;;6314064;28;19980;-60
2024/03/07 15:04:17;;;;;;;21.73;3.10;;;;;;;;;;6313103;28;19980;-59
2024/03/07 15:07:24;;;;;;;31.02;2.55;;;;;;;;;;6313259;28;20286;-60
2024/03/07 15:10:28;;;;;;;;;;;;;;;;;;6306582;28;20108;-60
2024/03/07 15:13:32;;;;;;;17.23;2.30;;;;;;;;;;6312579;28;20268;-60
2024/03/07 15:16:37;;;;;;;5.85;1.70;;;;;;;;;;6312863;28;20299;-59
2024/03/07 15:19:41;;;;;;;10.15;1.60;;;;;;;;;;6312361;28;20374;-60
2024/03/07 15:22:46;;;;;;;;;;;;;;;;;;6312460;28;20443;-60
2024/03/07 15:25:50;;;;;;;;;;;;;;;;;;6313344;28;19984;-59
2024/03/07 15:28:54;;;;;;;;;;;;;;;;;;6312229;28;19992;-59
2024/03/07 15:31:58;;;;;;;;;;;;;;;;;;6313276;28;19991;-60
2024/03/07 15:35:03;;;;;;;;;;;;;;;;;;6312779;28;19987;-60
2024/03/07 15:38:08;;;;;;;;;;;;;;;;;;6294696;28;19979;-60
2024/03/07 15:41:12;;;;;;;;;;;;;;;;;;6312829;28;19988;-61
2024/03/07 15:44:18;;;;;;;;;;;;;;;;;;6312186;28;19983;-60
2024/03/07 15:47:22;;;;;;;;;;;;;;;;;;6312419;28;19983;-61
2024/03/07 15:50:28;;;;;;;;;;;;;;;;;;6311614;28;19992;-60
2024/03/07 15:53:34;;;;;;;;;;;;;;;;;;6311798;28;19991;-60
2024/03/07 15:56:39;;;;;;;;;;;;;;;;;;6312055;28;20014;-60
2024/03/07 15:59:43;;;;;;;;;;;;;;;;;;6311607;28;19992;-60
2024/03/07 16:02:47;;;;;;;20.98;2.67;;;;;;;;;;6311026;28;20124;-60
2024/03/07 16:05:51;;;;;;;16.92;2.17;;;;;;;;;;6311639;28;20325;-60
2024/03/07 16:08:56;;;;;;;;;;;;;;;;;;6310214;28;20732;-61
2024/03/07 16:12:01;;;;;;;;;;;;;;;;;;6311563;28;19979;-61
2024/03/07 16:15:05;;;;;;;;;;;;;;;;;;6311589;28;19987;-61
2024/03/07 16:18:09;;;;;;;;;;;;;;;;;;6311868;28;19987;-60
2024/03/07 16:21:14;;;;;;;;;;;;;;;;;;6311364;28;20263;-61
2024/03/07 16:24:19;;;;;;;;;;;;;;;;;;6304323;28;19983;-60
2024/03/07 16:27:23;;;;;;;;;;;;;;;;;;6311698;28;19980;-60
2024/03/07 16:30:29;;;;;;;;;;;;;;;;;;6292748;28;19988;-60
2024/03/07 16:33:33;;;;;;;10.73;1.70;;;;;;;;;;6292419;28;20449;-60
2024/03/07 16:36:37;;;;;;;17.00;2.20;;;;;;;;;;6311100;28;20302;-59
2024/03/07 16:39:44;;;;;;;17.33;2.37;;;;;;;;;;6309519;28;20290;-63
2024/03/07 16:42:50;;;;;;;8.50;2.07;;;;;;;;;;6292069;28;20321;-59
2024/03/07 16:45:54;;;;;;;10.90;1.90;;;;;;;;;;6310544;28;20244;-61
2024/03/07 16:48:58;;;;;;;12.52;2.17;;;;;;;;;;6309982;28;20317;-60
2024/03/07 16:52:02;;;;;;;7.03;1.67;;;;;;;;;;6310230;28;20293;-62
2024/03/07 16:55:10;;;;;;;19.00;2.57;;;;;;;;;;6310037;28;20290;-60
2024/03/07 16:58:16;;;;;;;9.37;2.17;;;;;;;;;;6309558;28;20294;-60
2024/03/07 17:01:20;;;;;;;15.03;2.30;;;;;;;;;;6310284;28;20297;-60
2024/03/07 17:04:24;;;;;;;8.57;2.23;;;;;;;;;;6310023;28;20294;-60
2024/03/07 17:07:28;;;;;;;10.47;2.23;;;;;;;;;;6291992;28;20295;-61
2024/03/07 17:10:38;;;;;;;18.63;2.87;;;;;;;;;;6295025;28;20291;-61
2024/03/07 17:13:43;;;;;;;15.63;2.63;;;;;;;;;;6309840;28;20290;-60
2024/03/07 17:16:47;;;;;;;22.50;2.20;;;;;;;;;;6311082;28;20299;-61
2024/03/07 17:19:51;;;;;;;27.83;3.03;;;;;;;;;;6291967;28;20313;-61
2024/03/07 17:22:55;;;;;;;10.97;3.07;;;;;;;;;;6299140;28;20582;-63
2024/03/07 17:26:00;;;;;;;22.80;2.57;;;;;;;;;;6285002;28;20607;-61
2024/03/07 17:29:05;;;;;;;13.77;2.20;;;;;;;;;;6284629;28;20403;-61
2024/03/07 17:32:10;;;;;;;10.27;2.20;;;;;;;;;;6276312;28;20299;-61
2024/03/07 17:35:14;;;;;;;9.10;2.67;;;;;;;;;;6284666;28;20286;-62
2024/03/07 17:38:20;;;;;;;14.40;2.53;;;;;;;;;;6285119;28;20294;-61
2024/03/07 17:41:25;;;;;;;17.93;2.30;;;;;;;;;;6285341;28;20298;-61
2024/03/07 17:44:30;;;;;;;9.83;2.73;;;;;;;;;;6284344;28;20458;-61
2024/03/07 17:47:34;;;;;;;12.30;2.47;;;;;;;;;;6284291;28;20295;-61
2024/03/07 17:50:38;;;;;;;7.97;2.10;;;;;;;;;;6284798;28;20293;-60
2024/03/07 17:53:44;;;;;;;7.17;2.20;;;;;;;;;;6284169;28;20302;-60
2024/03/07 17:56:49;;;;;;;20.53;2.50;;;;;;;;;;6284944;28;20301;-60
2024/03/07 17:59:53;;;;;;;14.23;2.50;;;;;;;;;;6284020;28;20292;-61
2024/03/07 18:02:59;;;;;;;9.53;3.07;;;;;;;;;;6284521;28;20295;-60
2024/03/07 18:06:03;;;;;;;11.77;2.20;;;;;;;;;;6284357;28;20586;-60
2024/03/07 18:09:25;;;;;;;7.00;2.60;;;;;;;;;;6283703;28;20315;-60
2024/03/07 18:12:30;;;;;;;6.00;2.20;;;;;;;;;;6284194;28;20435;-60
2024/03/07 18:15:39;;;;;;;12.90;2.33;;;;;;;;;;6284521;28;20295;-61
2024/03/07 18:18:45;;;;;;;8.30;2.20;;;;;;;;;;6283000;28;20302;-61
2024/03/07 18:21:51;;;;;;;10.53;2.57;;;;;;;;;;6289459;28;20246;-61
2024/03/07 18:24:55;;;;;;;8.97;2.40;;;;;;;;;;6308954;28;20293;-61
2024/03/07 18:28:03;;;;;;;12.10;2.47;;;;;;;;;;6308686;28;20298;-61
2024/03/07 18:31:14;;;;;;;10.67;2.73;;;;;;;;;;6309233;28;20465;-60
2024/03/07 18:34:18;;;;;;;14.33;2.77;;;;;;;;;;6312375;28;20288;-62
2024/03/07 18:37:22;;;;;;;6.50;2.03;;;;;;;;;;6313791;28;20289;-61
2024/03/07 18:40:26;;;;;;;7.33;2.23;;;;;;;;;;6313518;28;20578;-61
2024/03/07 18:43:31;;;;;;;2.93;2.13;;;;;;;;;;6313562;28;20315;-61
2024/03/07 18:46:35;;;;;;;15.30;3.60;;;;;;;;;;6313919;28;20297;-61
2024/03/07 18:49:39;;;;;;;6.87;2.43;;;;;;;;;;6313076;28;20476;-60
2024/03/07 18:52:44;;;;;;;4.00;1.97;;;;;;;;;;6312942;28;20297;-60